Time;durP1;ratioP1;P1;durP2;ratioP2;P2;SDS_P1;SDS_P2;PMS_P1;PMS_P2;Temp;Humidity;BMP_temperature;BMP_pressure;BME280_temperature;BME280_humidity;BME280_pressure;Samples;Min_cycle;Max_cycle;Signal;HPM_P1;HPM_P2
2022/07/22 00:02:27;;;;;;;8.65;4.32;;;;;;;;;;5092401;28;20063;-71
2022/07/22 00:04:57;;;;;;;8.48;4.28;;;;;;;;;;5117066;28;20058;-71
2022/07/22 00:07:28;;;;;;;12.73;5.50;;;;;;;;;;5095922;28;20062;-71
2022/07/22 00:09:59;;;;;;;11.27;4.55;;;;;;;;;;5131822;28;20050;-71
2022/07/22 00:12:29;;;;;;;8.95;4.57;;;;;;;;;;5113709;28;20051;-70
2022/07/22 00:15:00;;;;;;;11.20;4.20;;;;;;;;;;5131712;28;20054;-71
2022/07/22 00:17:30;;;;;;;9.43;4.30;;;;;;;;;;5131811;28;20585;-71
2022/07/22 00:20:00;;;;;;;14.00;6.10;;;;;;;;;;5047321;28;20426;-71
2022/07/22 00:22:30;;;;;;;11.48;4.40;;;;;;;;;;5054535;28;20051;-71
2022/07/22 00:25:01;;;;;;;9.20;4.43;;;;;;;;;;5006280;28;20064;-70
2022/07/22 00:27:32;;;;;;;9.40;4.53;;;;;;;;;;5090761;28;20056;-71
2022/07/22 00:30:03;;;;;;;12.82;5.00;;;;;;;;;;5092158;28;20055;-71
2022/07/22 00:32:33;;;;;;;9.77;4.10;;;;;;;;;;5092434;28;20048;-72
2022/07/22 00:35:04;;;;;;;10.00;4.22;;;;;;;;;;5092243;28;20060;-71
2022/07/22 00:37:35;;;;;;;8.90;4.57;;;;;;;;;;5092289;28;20059;-72
2022/07/22 00:40:06;;;;;;;10.73;5.28;;;;;;;;;;5042923;28;20389;-72
2022/07/22 00:42:36;;;;;;;9.02;4.40;;;;;;;;;;5075703;28;20059;-72
2022/07/22 00:45:09;;;;;;;11.77;4.55;;;;;;;;;;5092072;28;20052;-73
2022/07/22 00:47:40;;;;;;;11.68;4.50;;;;;;;;;;5091982;28;20063;-73
2022/07/22 00:50:10;;;;;;;10.25;4.85;;;;;;;;;;5091882;28;20040;-73
2022/07/22 00:52:40;;;;;;;9.52;4.35;;;;;;;;;;5091962;28;20040;-73
2022/07/22 00:55:10;;;;;;;13.68;5.28;;;;;;;;;;5057874;28;20086;-73
2022/07/22 00:57:42;;;;;;;13.27;4.85;;;;;;;;;;5025425;28;20052;-73
2022/07/22 01:00:16;;;;;;;12.32;4.60;;;;;;;;;;5052207;28;20060;-73
2022/07/22 01:02:47;;;;;;;11.43;5.00;;;;;;;;;;5023751;28;20052;-73
2022/07/22 01:05:17;;;;;;;9.50;4.60;;;;;;;;;;5071022;28;20052;-73
2022/07/22 01:07:48;;;;;;;11.18;5.00;;;;;;;;;;5054549;28;20053;-73
2022/07/22 01:10:19;;;;;;;12.38;4.88;;;;;;;;;;5037931;28;20056;-73
2022/07/22 01:12:50;;;;;;;9.52;4.53;;;;;;;;;;5038020;28;20055;-73
2022/07/22 01:15:20;;;;;;;11.18;5.22;;;;;;;;;;4963917;28;20050;-73
2022/07/22 01:17:51;;;;;;;9.95;4.47;;;;;;;;;;5011607;28;20050;-73
2022/07/22 01:20:22;;;;;;;9.25;5.13;;;;;;;;;;5011574;28;20057;-73
2022/07/22 01:22:52;;;;;;;8.80;4.55;;;;;;;;;;5031092;28;20049;-73
2022/07/22 01:25:22;;;;;;;10.10;5.15;;;;;;;;;;5030767;28;20061;-73
2022/07/22 01:27:52;;;;;;;10.55;5.05;;;;;;;;;;5031012;28;20053;-73
2022/07/22 01:30:23;;;;;;;11.38;5.13;;;;;;;;;;4971634;28;20057;-73
2022/07/22 01:32:53;;;;;;;9.80;5.20;;;;;;;;;;4972143;28;20062;-73
2022/07/22 01:35:24;;;;;;;11.15;5.28;;;;;;;;;;4968419;28;20047;-73
2022/07/22 01:37:54;;;;;;;12.27;5.35;;;;;;;;;;4955622;28;20070;-73
2022/07/22 01:40:25;;;;;;;11.18;4.90;;;;;;;;;;4936647;29;20051;-73
2022/07/22 01:42:56;;;;;;;12.98;5.47;;;;;;;;;;4937200;28;20052;-73
2022/07/22 01:45:26;;;;;;;13.85;5.63;;;;;;;;;;4952784;28;20055;-73
2022/07/22 01:47:57;;;;;;;13.23;5.38;;;;;;;;;;4904811;28;20082;-72
2022/07/22 01:50:28;;;;;;;10.98;5.15;;;;;;;;;;4905080;28;20059;-72
2022/07/22 01:52:59;;;;;;;14.45;5.03;;;;;;;;;;4954857;28;20079;-72
2022/07/22 01:55:29;;;;;;;12.93;5.22;;;;;;;;;;4990911;28;20545;-73
2022/07/22 01:58:01;;;;;;;14.13;5.70;;;;;;;;;;4975530;28;20061;-73
2022/07/22 02:00:35;;;;;;;12.27;5.60;;;;;;;;;;4990960;28;20054;-73
2022/07/22 02:03:06;;;;;;;12.20;5.32;;;;;;;;;;4985236;28;20580;-73
2022/07/22 02:05:39;;;;;;;9.85;5.05;;;;;;;;;;5010310;28;20053;-73
2022/07/22 02:08:19;;;;;;;10.68;5.20;;;;;;;;;;4986538;28;20053;-73
2022/07/22 02:11:12;;;;;;;12.55;4.90;;;;;;;;;;4971355;28;20047;-72
2022/07/22 02:14:03;;;;;;;11.30;4.90;;;;;;;;;;4953635;28;20059;-72
2022/07/22 02:16:35;;;;;;;12.55;5.53;;;;;;;;;;4952093;29;20071;-72
2022/07/22 02:19:06;;;;;;;13.40;5.53;;;;;;;;;;4969657;28;20061;-72
2022/07/22 02:21:37;;;;;;;10.13;4.88;;;;;;;;;;4971146;28;20059;-73
2022/07/22 02:24:08;;;;;;;11.82;5.22;;;;;;;;;;4971437;28;20545;-71
2022/07/22 02:26:38;;;;;;;12.77;5.05;;;;;;;;;;4951564;28;20051;-71
2022/07/22 02:29:12;;;;;;;14.20;5.32;;;;;;;;;;4970669;28;20055;-72
2022/07/22 02:31:42;;;;;;;12.07;5.25;;;;;;;;;;4970697;28;20117;-72
2022/07/22 02:34:12;;;;;;;13.48;5.30;;;;;;;;;;4990005;28;20061;-72
2022/07/22 02:36:42;;;;;;;8.98;4.93;;;;;;;;;;4951432;28;20086;-72
2022/07/22 02:39:13;;;;;;;14.43;5.57;;;;;;;;;;4884943;29;20052;-72
2022/07/22 02:41:44;;;;;;;12.27;5.20;;;;;;;;;;4885446;29;20236;-72
2022/07/22 02:44:15;;;;;;;13.38;5.45;;;;;;;;;;4897516;29;20056;-72
2022/07/22 02:46:45;;;;;;;9.95;4.80;;;;;;;;;;4880902;29;20056;-73
2022/07/22 02:49:21;;;;;;;12.60;5.20;;;;;;;;;;4939055;28;20068;-73
2022/07/22 02:51:52;;;;;;;10.90;4.53;;;;;;;;;;4932067;29;20182;-73
2022/07/22 02:54:22;;;;;;;10.40;4.93;;;;;;;;;;4928567;29;20056;-73
2022/07/22 02:56:52;;;;;;;16.17;5.63;;;;;;;;;;4913339;29;20064;-72
2022/07/22 02:59:23;;;;;;;13.05;5.57;;;;;;;;;;4912950;29;20059;-72
2022/07/22 03:01:54;;;;;;;12.57;5.07;;;;;;;;;;4913008;29;20051;-72
2022/07/22 03:04:24;;;;;;;11.75;5.20;;;;;;;;;;4931603;29;20052;-71
2022/07/22 03:06:55;;;;;;;12.15;5.10;;;;;;;;;;4970027;28;20054;-72
2022/07/22 03:09:25;;;;;;;13.00;5.43;;;;;;;;;;4970106;28;20059;-72
2022/07/22 03:11:56;;;;;;;10.63;5.05;;;;;;;;;;4960000;28;20058;-73
2022/07/22 03:14:27;;;;;;;13.60;5.15;;;;;;;;;;4951025;29;20051;-72
2022/07/22 03:16:57;;;;;;;11.82;5.45;;;;;;;;;;4952743;28;20055;-71
2022/07/22 03:19:27;;;;;;;11.13;5.32;;;;;;;;;;4980304;28;20069;-71
2022/07/22 03:21:58;;;;;;;10.77;6.88;;;;;;;;;;4970007;28;20462;-71
2022/07/22 03:24:29;;;;;;;12.38;4.97;;;;;;;;;;4969912;28;20151;-72
2022/07/22 03:26:59;;;;;;;13.60;5.07;;;;;;;;;;4970126;28;20062;-72
2022/07/22 03:29:31;;;;;;;12.20;6.32;;;;;;;;;;4971043;28;20439;-72
2022/07/22 03:32:02;;;;;;;11.23;5.30;;;;;;;;;;4941476;28;20058;-72
2022/07/22 03:34:47;;;;;;;10.65;4.82;;;;;;;;;;4989224;28;20050;-72
2022/07/22 03:37:18;;;;;;;11.27;4.65;;;;;;;;;;4953861;28;20047;-71
2022/07/22 03:39:48;;;;;;;12.77;5.10;;;;;;;;;;4970123;28;20062;-71
2022/07/22 03:42:19;;;;;;;12.77;4.78;;;;;;;;;;4969892;28;20066;-72
2022/07/22 03:44:50;;;;;;;13.93;5.38;;;;;;;;;;4993230;28;20540;-72
2022/07/22 03:47:22;;;;;;;12.05;4.82;;;;;;;;;;4992150;28;20052;-72
2022/07/22 03:49:53;;;;;;;15.65;5.28;;;;;;;;;;5021009;28;20056;-72
2022/07/22 03:52:28;;;;;;;11.02;5.35;;;;;;;;;;5004405;28;20050;-72
2022/07/22 03:55:02;;;;;;;15.05;5.55;;;;;;;;;;5008392;28;20046;-72
2022/07/22 03:57:33;;;;;;;9.50;4.82;;;;;;;;;;4969261;28;20050;-71
2022/07/22 04:00:10;;;;;;;12.15;4.78;;;;;;;;;;4968989;28;20054;-72
2022/07/22 04:02:44;;;;;;;12.25;6.47;;;;;;;;;;4954975;28;20104;-73
2022/07/22 04:05:25;;;;;;;13.45;5.07;;;;;;;;;;4950091;29;20066;-73
2022/07/22 04:07:56;;;;;;;13.70;4.78;;;;;;;;;;4988676;28;20592;-73
2022/07/22 04:10:28;;;;;;;12.38;4.70;;;;;;;;;;4988542;28;20055;-73
2022/07/22 04:12:59;;;;;;;9.48;4.45;;;;;;;;;;4949934;29;20617;-73
2022/07/22 04:15:39;;;;;;;11.00;4.45;;;;;;;;;;4930720;29;20066;-73
2022/07/22 04:18:11;;;;;;;9.63;4.63;;;;;;;;;;4933780;29;20047;-72
2022/07/22 04:20:41;;;;;;;9.52;4.65;;;;;;;;;;4930371;29;20055;-72
2022/07/22 04:23:34;;;;;;;9.73;5.07;;;;;;;;;;4911751;29;20052;-72
2022/07/22 04:26:18;;;;;;;10.27;4.68;;;;;;;;;;4895945;29;20052;-72
2022/07/22 04:28:49;;;;;;;10.27;5.13;;;;;;;;;;4892575;29;20052;-72
2022/07/22 04:31:19;;;;;;;10.88;4.95;;;;;;;;;;4855735;29;20046;-71
2022/07/22 04:33:55;;;;;;;12.23;5.03;;;;;;;;;;4846361;29;20054;-71
2022/07/22 04:36:26;;;;;;;9.23;4.57;;;;;;;;;;4843317;29;20481;-71
2022/07/22 04:38:58;;;;;;;12.52;5.10;;;;;;;;;;4873920;29;20057;-71
2022/07/22 04:41:29;;;;;;;;;;;;;;;;;;4893005;29;20053;-71
2022/07/22 04:44:00;;;;;;;9.90;4.60;;;;;;;;;;4892512;29;19924;-71
2022/07/22 04:46:33;;;;;;;9.65;4.75;;;;;;;;;;4892882;29;21022;-71
2022/07/22 04:49:05;;;;;;;12.20;5.10;;;;;;;;;;4892681;29;20049;-71
2022/07/22 04:51:36;;;;;;;11.70;5.25;;;;;;;;;;4892390;29;20056;-71
2022/07/22 04:54:09;;;;;;;10.93;4.63;;;;;;;;;;4887808;29;20049;-71
2022/07/22 04:56:43;;;;;;;14.13;4.63;;;;;;;;;;4874931;29;20056;-71
2022/07/22 04:59:14;;;;;;;8.90;5.05;;;;;;;;;;4924313;29;20675;-71
2022/07/22 05:01:44;;;;;;;10.30;4.45;;;;;;;;;;4911645;29;20067;-71
2022/07/22 05:04:15;;;;;;;8.45;4.43;;;;;;;;;;4911317;29;20059;-71
2022/07/22 05:06:47;;;;;;;10.43;4.53;;;;;;;;;;4923109;29;20161;-72
2022/07/22 05:09:17;;;;;;;8.40;3.92;;;;;;;;;;4956958;28;20059;-71
2022/07/22 05:11:47;;;;;;;8.75;4.78;;;;;;;;;;4949901;28;20071;-71
2022/07/22 05:14:21;;;;;;;10.73;4.38;;;;;;;;;;4979478;28;20047;-71
2022/07/22 05:16:51;;;;;;;8.88;4.20;;;;;;;;;;4972245;28;20085;-71
2022/07/22 05:19:22;;;;;;;11.10;4.38;;;;;;;;;;4957231;28;20048;-71
2022/07/22 05:21:53;;;;;;;9.63;4.28;;;;;;;;;;4933490;29;20055;-71
2022/07/22 05:24:23;;;;;;;7.55;4.13;;;;;;;;;;4933695;29;20062;-71
2022/07/22 05:26:53;;;;;;;9.98;4.15;;;;;;;;;;4914452;29;20048;-71
2022/07/22 05:29:24;;;;;;;8.30;4.28;;;;;;;;;;4883029;29;20048;-72
2022/07/22 05:31:55;;;;;;;8.63;3.72;;;;;;;;;;4909325;29;20510;-71
2022/07/22 05:34:26;;;;;;;10.10;4.43;;;;;;;;;;4904353;29;20052;-72
2022/07/22 05:36:56;;;;;;;11.02;4.22;;;;;;;;;;4895512;29;20106;-72
2022/07/22 05:39:28;;;;;;;11.45;3.78;;;;;;;;;;4914228;29;20490;-72
2022/07/22 05:41:58;;;;;;;7.85;3.95;;;;;;;;;;4914700;29;20056;-71
2022/07/22 05:44:29;;;;;;;11.10;3.78;;;;;;;;;;4913999;29;20056;-72
2022/07/22 05:47:00;;;;;;;8.15;3.70;;;;;;;;;;4924809;29;20055;-72
2022/07/22 05:49:30;;;;;;;10.20;3.60;;;;;;;;;;4933295;29;20059;-72
2022/07/22 05:52:05;;;;;;;8.77;4.20;;;;;;;;;;4943112;29;20059;-72
2022/07/22 05:54:36;;;;;;;9.48;3.80;;;;;;;;;;4952805;29;20058;-72
2022/07/22 05:57:09;;;;;;;7.53;3.33;;;;;;;;;;4942148;29;20111;-72
2022/07/22 05:59:41;;;;;;;6.72;3.28;;;;;;;;;;4941538;29;20047;-72
2022/07/22 06:02:11;;;;;;;8.13;4.05;;;;;;;;;;4948639;29;20070;-72
2022/07/22 06:04:48;;;;;;;8.05;3.88;;;;;;;;;;4929572;29;20055;-72
2022/07/22 06:07:20;;;;;;;9.63;3.55;;;;;;;;;;4936173;29;20055;-72
2022/07/22 06:09:58;;;;;;;7.90;4.35;;;;;;;;;;4966599;28;20447;-72
2022/07/22 06:12:32;;;;;;;7.43;3.60;;;;;;;;;;4955744;28;20058;-72
2022/07/22 06:15:04;;;;;;;9.13;3.78;;;;;;;;;;4971250;28;20235;-72
2022/07/22 06:17:34;;;;;;;10.32;3.55;;;;;;;;;;4970919;28;20054;-72
2022/07/22 06:20:06;;;;;;;7.63;3.28;;;;;;;;;;4971061;28;20172;-72
2022/07/22 06:22:39;;;;;;;10.25;3.80;;;;;;;;;;4977114;28;20066;-72
2022/07/22 06:25:10;;;;;;;7.20;3.30;;;;;;;;;;4970693;28;20053;-72
2022/07/22 06:28:01;;;;;;;8.27;3.47;;;;;;;;;;4951667;28;20063;-72
2022/07/22 06:30:31;;;;;;;7.90;3.55;;;;;;;;;;4970568;28;20051;-72
2022/07/22 06:33:02;;;;;;;8.57;4.07;;;;;;;;;;4951532;28;20099;-71
2022/07/22 06:35:33;;;;;;;6.90;3.20;;;;;;;;;;4951341;28;20047;-72
2022/07/22 06:38:03;;;;;;;8.75;3.35;;;;;;;;;;4966699;28;20051;-72
2022/07/22 06:40:54;;;;;;;7.80;3.45;;;;;;;;;;4957497;28;20051;-72
2022/07/22 06:43:54;;;;;;;7.07;2.97;;;;;;;;;;4971275;28;20058;-72
2022/07/22 06:46:47;;;;;;;7.40;3.08;;;;;;;;;;4964893;28;20059;-72
2022/07/22 06:49:19;;;;;;;6.47;3.05;;;;;;;;;;4951095;29;20966;-72
2022/07/22 06:51:53;;;;;;;8.05;3.10;;;;;;;;;;4951046;29;20062;-72
2022/07/22 06:54:24;;;;;;;6.38;3.17;;;;;;;;;;4945768;29;20493;-72
2022/07/22 06:56:57;;;;;;;8.45;4.57;;;;;;;;;;4931927;29;20432;-72
2022/07/22 06:59:32;;;;;;;10.93;3.58;;;;;;;;;;4916837;29;20058;-72
2022/07/22 07:02:08;;;;;;;7.63;3.03;;;;;;;;;;4985293;28;20047;-73
2022/07/22 07:04:39;;;;;;;8.05;3.08;;;;;;;;;;4953125;28;20500;-71
2022/07/22 07:07:10;;;;;;;8.30;3.42;;;;;;;;;;4918457;29;20537;-72
2022/07/22 07:10:01;;;;;;;;;;;;;;;;;;4917798;29;20059;-72
2022/07/22 07:12:47;;;;;;;8.32;3.00;;;;;;;;;;4950671;29;19922;-72
2022/07/22 07:15:23;;;;;;;6.20;3.17;;;;;;;;;;4931605;29;20076;-72
2022/07/22 07:18:03;;;;;;;6.38;2.45;;;;;;;;;;4941699;29;20491;-72
2022/07/22 07:20:35;;;;;;;6.22;3.78;;;;;;;;;;4940429;29;20488;-72
2022/07/22 07:23:08;;;;;;;6.35;3.10;;;;;;;;;;4916278;29;20079;-72
2022/07/22 07:25:44;;;;;;;8.27;2.65;;;;;;;;;;4969649;28;20050;-72
2022/07/22 07:28:15;;;;;;;5.82;2.85;;;;;;;;;;4970194;28;20066;-72
2022/07/22 07:30:55;;;;;;;5.07;2.90;;;;;;;;;;4950363;29;20055;-72
2022/07/22 07:33:26;;;;;;;6.40;2.63;;;;;;;;;;4918365;29;20054;-72
2022/07/22 07:35:56;;;;;;;5.65;2.90;;;;;;;;;;4950428;28;20078;-72
2022/07/22 07:38:50;;;;;;;8.88;3.13;;;;;;;;;;4929577;28;20054;-71
2022/07/22 07:41:21;;;;;;;6.05;2.83;;;;;;;;;;4989385;28;20062;-72
2022/07/22 07:43:52;;;;;;;6.43;2.97;;;;;;;;;;4939700;29;20047;-72
2022/07/22 07:46:23;;;;;;;7.20;2.97;;;;;;;;;;4912288;29;20060;-72
2022/07/22 07:48:54;;;;;;;7.78;2.88;;;;;;;;;;4912347;29;20055;-72
2022/07/22 07:51:25;;;;;;;7.65;2.58;;;;;;;;;;4931084;29;20524;-72
2022/07/22 07:53:55;;;;;;;6.80;2.80;;;;;;;;;;4915167;29;20052;-72
2022/07/22 07:56:25;;;;;;;5.68;2.97;;;;;;;;;;4926927;29;20052;-72
2022/07/22 07:58:56;;;;;;;6.03;2.50;;;;;;;;;;4961276;28;20066;-72
2022/07/22 08:01:47;;;;;;;6.57;2.83;;;;;;;;;;4976589;28;20054;-72
2022/07/22 08:04:29;;;;;;;8.07;2.78;;;;;;;;;;4937218;28;20526;-73
2022/07/22 08:07:09;;;;;;;5.97;2.85;;;;;;;;;;4969757;28;20058;-72
2022/07/22 08:09:44;;;;;;;6.15;3.38;;;;;;;;;;4949950;29;20410;-72
2022/07/22 08:12:46;;;;;;;5.72;2.72;;;;;;;;;;4915430;29;20044;-72
2022/07/22 08:15:33;;;;;;;7.85;2.97;;;;;;;;;;4949660;28;20055;-71
2022/07/22 08:18:08;;;;;;;6.20;2.40;;;;;;;;;;4985501;28;20058;-71
2022/07/22 08:20:39;;;;;;;6.65;3.20;;;;;;;;;;4969287;28;20087;-71
2022/07/22 08:23:12;;;;;;;7.53;4.28;;;;;;;;;;4969016;28;20100;-72
2022/07/22 08:25:45;;;;;;;8.10;4.05;;;;;;;;;;4953596;28;20408;-71
2022/07/22 08:28:15;;;;;;;6.57;3.30;;;;;;;;;;4981090;28;20051;-71
2022/07/22 08:30:46;;;;;;;10.75;3.50;;;;;;;;;;4985087;28;20050;-71
2022/07/22 08:33:17;;;;;;;7.03;2.97;;;;;;;;;;4984993;28;20051;-71
2022/07/22 08:35:47;;;;;;;7.63;2.80;;;;;;;;;;4969301;28;20563;-71
2022/07/22 08:38:18;;;;;;;5.82;2.67;;;;;;;;;;4968359;28;20055;-71
2022/07/22 08:40:49;;;;;;;4.88;2.42;;;;;;;;;;4988406;28;20561;-71
2022/07/22 08:43:19;;;;;;;8.02;2.90;;;;;;;;;;4956629;28;20058;-72
2022/07/22 08:45:51;;;;;;;6.25;2.72;;;;;;;;;;4970709;28;20056;-72
2022/07/22 08:48:23;;;;;;;6.70;3.00;;;;;;;;;;4937691;28;20055;-72
2022/07/22 08:51:22;;;;;;;6.45;2.90;;;;;;;;;;4953364;28;20051;-72
2022/07/22 08:54:16;;;;;;;6.10;2.75;;;;;;;;;;4988935;28;20049;-72
2022/07/22 08:56:51;;;;;;;7.32;2.97;;;;;;;;;;4972367;28;20525;-72
2022/07/22 08:59:24;;;;;;;6.55;2.70;;;;;;;;;;4890168;29;20055;-72
2022/07/22 09:02:11;;;;;;;4.75;2.58;;;;;;;;;;4884779;29;20067;-72
2022/07/22 09:05:00;;;;;;;6.22;2.45;;;;;;;;;;4952860;29;20528;-72
2022/07/22 09:07:51;;;;;;;4.80;2.38;;;;;;;;;;4933806;29;20060;-72
2022/07/22 09:10:31;;;;;;;10.45;3.42;;;;;;;;;;4939237;29;20051;-72
2022/07/22 09:13:20;;;;;;;8.50;3.90;;;;;;;;;;4939727;29;20408;-72
2022/07/22 09:15:54;;;;;;;6.28;2.55;;;;;;;;;;4904725;29;20056;-72
2022/07/22 09:18:54;;;;;;;6.03;3.15;;;;;;;;;;4879610;29;20430;-72
2022/07/22 09:21:30;;;;;;;8.70;2.58;;;;;;;;;;4907772;29;20060;-72
2022/07/22 09:24:32;;;;;;;6.47;2.75;;;;;;;;;;4854606;29;20057;-72
2022/07/22 09:27:28;;;;;;;8.50;3.60;;;;;;;;;;4858877;29;20419;-72
2022/07/22 09:30:23;;;;;;;5.95;2.42;;;;;;;;;;4859185;29;20057;-72
2022/07/22 09:33:03;;;;;;;5.78;2.33;;;;;;;;;;4895494;29;20053;-72
2022/07/22 09:35:44;;;;;;;6.82;2.80;;;;;;;;;;4895639;29;20056;-72
2022/07/22 09:38:31;;;;;;;9.80;2.75;;;;;;;;;;4933334;29;20574;-72
2022/07/22 09:41:03;;;;;;;7.78;2.50;;;;;;;;;;4910543;29;20061;-72
2022/07/22 09:43:36;;;;;;;7.88;2.85;;;;;;;;;;4932676;29;20060;-72
2022/07/22 09:46:09;;;;;;;9.80;2.60;;;;;;;;;;4939887;28;20063;-72
2022/07/22 09:48:58;;;;;;;6.00;2.20;;;;;;;;;;4949743;29;20051;-71
2022/07/22 09:51:52;;;;;;;6.57;2.40;;;;;;;;;;4954568;28;20059;-72
2022/07/22 09:54:54;;;;;;;5.57;2.83;;;;;;;;;;4944908;29;20059;-72
2022/07/22 09:57:25;;;;;;;6.88;2.42;;;;;;;;;;4964240;28;20052;-71
2022/07/22 09:59:56;;;;;;;6.85;2.58;;;;;;;;;;4951960;28;20055;-71
2022/07/22 10:02:52;;;;;;;7.25;2.72;;;;;;;;;;4952817;28;20495;-72
2022/07/22 10:05:28;;;;;;;6.63;3.42;;;;;;;;;;4902600;29;20606;-71
2022/07/22 10:08:01;;;;;;;5.18;2.60;;;;;;;;;;4895506;29;20061;-70
2022/07/22 10:10:33;;;;;;;7.80;3.08;;;;;;;;;;4921574;29;20052;-69
2022/07/22 10:13:07;;;;;;;9.80;3.15;;;;;;;;;;4932746;29;20051;-71
2022/07/22 10:15:38;;;;;;;7.45;3.25;;;;;;;;;;4939377;29;20051;-70
2022/07/22 10:18:16;;;;;;;6.55;2.92;;;;;;;;;;4952051;29;20055;-71
2022/07/22 10:21:00;;;;;;;9.38;2.88;;;;;;;;;;4926250;29;20051;-70
2022/07/22 10:23:31;;;;;;;7.32;3.03;;;;;;;;;;4913910;29;20063;-70
2022/07/22 10:26:03;;;;;;;7.22;2.83;;;;;;;;;;4913912;29;20067;-70
2022/07/22 10:28:37;;;;;;;7.93;3.30;;;;;;;;;;4932612;29;20047;-70
2022/07/22 10:31:28;;;;;;;10.82;3.60;;;;;;;;;;4926087;28;20077;-70
2022/07/22 10:34:00;;;;;;;7.80;3.70;;;;;;;;;;4950827;29;20055;-70
2022/07/22 10:36:37;;;;;;;7.03;2.78;;;;;;;;;;4951561;29;20063;-71
2022/07/22 10:39:10;;;;;;;8.88;3.30;;;;;;;;;;4947550;29;20051;-70
2022/07/22 10:41:45;;;;;;;8.02;3.63;;;;;;;;;;4932521;29;20064;-71
2022/07/22 10:44:57;;;;;;;7.05;3.72;;;;;;;;;;4913395;29;20093;-70
2022/07/22 10:48:00;;;;;;;6.78;3.17;;;;;;;;;;4923521;28;20533;-70
2022/07/22 10:50:39;;;;;;;8.30;3.42;;;;;;;;;;4955014;28;20062;-70
2022/07/22 10:53:15;;;;;;;9.35;3.53;;;;;;;;;;4970410;28;20046;-71
2022/07/22 10:56:28;;;;;;;9.85;4.35;;;;;;;;;;4970920;28;20055;-70
2022/07/22 10:59:28;;;;;;;12.38;4.18;;;;;;;;;;4913912;29;20614;-71
2022/07/22 11:02:14;;;;;;;8.63;3.75;;;;;;;;;;4874655;29;20060;-70
2022/07/22 11:04:58;;;;;;;7.03;3.70;;;;;;;;;;4873796;29;20053;-70
2022/07/22 11:07:31;;;;;;;11.80;3.90;;;;;;;;;;4827621;29;20535;-70
2022/07/22 11:10:19;;;;;;;11.32;4.90;;;;;;;;;;4855568;29;20065;-71
2022/07/22 11:13:02;;;;;;;9.43;4.38;;;;;;;;;;4874078;29;20517;-70
2022/07/22 11:15:46;;;;;;;14.85;4.85;;;;;;;;;;4872465;29;20061;-70
2022/07/22 11:18:45;;;;;;;11.27;4.93;;;;;;;;;;4869371;29;20092;-70
2022/07/22 11:21:30;;;;;;;9.57;4.13;;;;;;;;;;4857580;29;20068;-70
2022/07/22 11:24:08;;;;;;;15.30;4.63;;;;;;;;;;4856367;29;20050;-70
2022/07/22 11:26:46;;;;;;;11.18;4.40;;;;;;;;;;4895104;29;20056;-70
2022/07/22 11:29:29;;;;;;;9.02;4.43;;;;;;;;;;4866187;29;20056;-70
2022/07/22 11:32:01;;;;;;;9.40;4.25;;;;;;;;;;4918851;28;20064;-71
2022/07/22 11:34:31;;;;;;;11.68;4.68;;;;;;;;;;4970010;28;20054;-70
2022/07/22 11:37:02;;;;;;;11.82;5.03;;;;;;;;;;4922017;28;20061;-71
2022/07/22 11:39:32;;;;;;;12.35;6.03;;;;;;;;;;5014412;28;20114;-70
2022/07/22 11:42:03;;;;;;;11.20;6.38;;;;;;;;;;5028531;28;20421;-70
2022/07/22 11:44:37;;;;;;;13.68;5.47;;;;;;;;;;5008883;28;20049;-71
2022/07/22 11:47:08;;;;;;;13.85;6.63;;;;;;;;;;4992970;28;20532;-71
2022/07/22 11:49:40;;;;;;;10.80;5.47;;;;;;;;;;4961902;28;20058;-71
2022/07/22 11:52:14;;;;;;;12.93;6.32;;;;;;;;;;5028448;28;20038;-72
2022/07/22 11:54:45;;;;;;;15.13;6.25;;;;;;;;;;4986276;28;20045;-71
2022/07/22 11:57:15;;;;;;;14.32;6.43;;;;;;;;;;5008617;28;20060;-71
2022/07/22 11:59:46;;;;;;;15.68;5.70;;;;;;;;;;5008821;28;20054;-71
2022/07/22 12:02:17;;;;;;;13.02;5.75;;;;;;;;;;5036521;28;20076;-71
2022/07/22 12:04:48;;;;;;;10.85;5.50;;;;;;;;;;5048138;28;20064;-70
2022/07/22 12:07:32;;;;;;;14.07;6.55;;;;;;;;;;4998983;28;20049;-71
2022/07/22 12:10:03;;;;;;;18.90;7.03;;;;;;;;;;5048213;28;20052;-71
2022/07/22 12:12:43;;;;;;;15.13;6.60;;;;;;;;;;5048365;28;20153;-70
2022/07/22 12:15:13;;;;;;;18.27;8.25;;;;;;;;;;5047963;28;20053;-71
2022/07/22 12:18:39;;;;;;;19.80;8.20;;;;;;;;;;5008460;28;20054;-71
2022/07/22 12:21:10;;;;;;;16.13;8.27;;;;;;;;;;4951798;28;20606;-71
2022/07/22 12:23:53;;;;;;;16.60;8.35;;;;;;;;;;4953814;29;20059;-71
2022/07/22 12:26:49;;;;;;;16.55;10.00;;;;;;;;;;4938156;29;20059;-71
2022/07/22 12:29:22;;;;;;;18.90;9.27;;;;;;;;;;4954196;29;20059;-71
2022/07/22 12:32:01;;;;;;;22.90;10.38;;;;;;;;;;4954133;29;20047;-71
2022/07/22 12:34:33;;;;;;;21.67;11.88;;;;;;;;;;4918941;29;20463;-71
2022/07/22 12:37:19;;;;;;;18.52;9.50;;;;;;;;;;4934801;29;20056;-71
2022/07/22 12:39:57;;;;;;;21.30;10.52;;;;;;;;;;4903449;29;20052;-73
2022/07/22 12:42:35;;;;;;;19.30;8.57;;;;;;;;;;4915458;29;20052;-71
2022/07/22 12:45:07;;;;;;;;;;;;;;;;;;4916311;29;20071;-71
2022/07/22 12:48:10;;;;;;;17.58;9.18;;;;;;;;;;4915606;29;19945;-70
2022/07/22 12:50:43;;;;;;;17.48;8.40;;;;;;;;;;4915356;29;20052;-70
2022/07/22 12:53:16;;;;;;;16.67;8.43;;;;;;;;;;4915631;29;20059;-71
2022/07/22 12:55:56;;;;;;;16.20;8.50;;;;;;;;;;4940889;28;20073;-70
2022/07/22 12:58:27;;;;;;;;;;;;;;;;;;5032612;28;20049;-71
2022/07/22 13:00:59;;;;;;;17.35;8.32;;;;;;;;;;5038402;28;19928;-71
2022/07/22 13:03:32;;;;;;;43.58;19.80;;;;;;;;;;5051726;28;20060;-71
2022/07/22 13:06:06;;;;;;;30.48;12.10;;;;;;;;;;5031153;28;20057;-71
2022/07/22 13:08:37;;;;;;;16.05;8.75;;;;;;;;;;4962952;28;20046;-72
2022/07/22 13:11:14;;;;;;;11.77;4.38;;;;;;;;;;5011551;28;20682;-70
2022/07/22 13:13:45;;;;;;;9.20;3.80;;;;;;;;;;5011594;28;20069;-70
2022/07/22 13:16:16;;;;;;;9.45;3.40;;;;;;;;;;5011905;28;20058;-70
2022/07/22 13:18:46;;;;;;;7.65;4.07;;;;;;;;;;4972326;28;20054;-69
2022/07/22 13:21:16;;;;;;;12.30;4.03;;;;;;;;;;4962739;28;20434;-70
2022/07/22 13:23:47;;;;;;;14.65;3.15;;;;;;;;;;5011911;28;20058;-71
2022/07/22 13:26:17;;;;;;;7.75;2.60;;;;;;;;;;5011301;28;20060;-69
2022/07/22 13:28:48;;;;;;;6.50;2.58;;;;;;;;;;5011405;28;20065;-69
2022/07/22 13:31:18;;;;;;;9.23;4.40;;;;;;;;;;5011302;28;20046;-69
2022/07/22 13:33:48;;;;;;;7.05;2.90;;;;;;;;;;5010672;28;20054;-68
2022/07/22 13:36:18;;;;;;;7.35;2.65;;;;;;;;;;5011159;28;20513;-69
2022/07/22 13:38:51;;;;;;;5.95;2.53;;;;;;;;;;4978650;28;20584;-69
2022/07/22 13:41:21;;;;;;;6.65;2.67;;;;;;;;;;5011162;28;20090;-70
2022/07/22 13:43:51;;;;;;;7.28;5.00;;;;;;;;;;5022803;28;20643;-67
2022/07/22 13:46:23;;;;;;;7.05;2.67;;;;;;;;;;5047933;28;20048;-69
2022/07/22 13:48:54;;;;;;;8.15;2.45;;;;;;;;;;5057318;28;20059;-69
2022/07/22 13:51:24;;;;;;;8.77;2.75;;;;;;;;;;5090799;28;20048;-69
2022/07/22 13:53:54;;;;;;;12.98;4.68;;;;;;;;;;5090916;28;20044;-69
2022/07/22 13:56:25;;;;;;;6.53;3.08;;;;;;;;;;5078995;27;20063;-68
2022/07/22 13:58:56;;;;;;;13.40;2.90;;;;;;;;;;5064260;27;20058;-69
2022/07/22 14:01:27;;;;;;;8.80;2.85;;;;;;;;;;5133691;27;20042;-70
2022/07/22 14:03:57;;;;;;;11.50;2.75;;;;;;;;;;5134126;27;20050;-69
2022/07/22 14:06:28;;;;;;;11.70;4.82;;;;;;;;;;5094166;28;20085;-68
2022/07/22 14:08:58;;;;;;;5.93;2.40;;;;;;;;;;5113390;28;20040;-69
2022/07/22 14:11:28;;;;;;;4.90;2.22;;;;;;;;;;5113368;28;20474;-68
2022/07/22 14:13:58;;;;;;;8.65;2.33;;;;;;;;;;5078005;28;20051;-69
2022/07/22 14:16:35;;;;;;;5.45;2.42;;;;;;;;;;5113215;28;20052;-69
2022/07/22 14:19:25;;;;;;;9.05;2.60;;;;;;;;;;5113365;28;20050;-71
2022/07/22 14:21:56;;;;;;;7.70;2.45;;;;;;;;;;5113247;28;20047;-70
2022/07/22 14:24:26;;;;;;;9.88;2.25;;;;;;;;;;5061426;28;20060;-69
2022/07/22 14:26:56;;;;;;;5.82;2.08;;;;;;;;;;5077783;28;20048;-69
2022/07/22 14:29:27;;;;;;;6.00;1.83;;;;;;;;;;5112009;28;20040;-69
2022/07/22 14:31:57;;;;;;;6.05;2.33;;;;;;;;;;5020566;28;20040;-70
2022/07/22 14:34:28;;;;;;;6.15;2.65;;;;;;;;;;5069902;28;20464;-70
2022/07/22 14:36:58;;;;;;;7.70;2.28;;;;;;;;;;4993820;28;20063;-71
2022/07/22 14:39:28;;;;;;;7.03;2.13;;;;;;;;;;5010184;28;20054;-70
2022/07/22 14:41:58;;;;;;;8.38;2.33;;;;;;;;;;4970773;28;20051;-69
2022/07/22 14:44:28;;;;;;;3.95;1.70;;;;;;;;;;4932171;29;20062;-68
2022/07/22 14:46:59;;;;;;;6.13;1.85;;;;;;;;;;4931750;29;20056;-69
2022/07/22 14:49:29;;;;;;;8.52;2.65;;;;;;;;;;4932523;29;20405;-69
2022/07/22 14:51:59;;;;;;;4.75;2.65;;;;;;;;;;4885219;29;20436;-68
2022/07/22 14:54:29;;;;;;;7.40;1.90;;;;;;;;;;4932574;29;20059;-69
2022/07/22 14:57:01;;;;;;;4.15;1.73;;;;;;;;;;4932370;29;20064;-68
2022/07/22 14:59:31;;;;;;;5.65;1.77;;;;;;;;;;4932547;29;20199;-67
2022/07/22 15:02:01;;;;;;;7.18;1.88;;;;;;;;;;4932148;29;20056;-68
2022/07/22 15:04:32;;;;;;;4.13;1.88;;;;;;;;;;4900528;29;20496;-69
2022/07/22 15:07:02;;;;;;;3.92;1.73;;;;;;;;;;4916387;29;20052;-69
2022/07/22 15:09:32;;;;;;;5.47;2.47;;;;;;;;;;4959612;28;20055;-68
2022/07/22 15:12:03;;;;;;;5.28;1.83;;;;;;;;;;4990112;28;20043;-69
2022/07/22 15:14:53;;;;;;;3.70;1.70;;;;;;;;;;5026542;28;20057;-69
2022/07/22 15:17:23;;;;;;;4.47;2.00;;;;;;;;;;5049215;28;20056;-70
2022/07/22 15:19:54;;;;;;;5.03;1.95;;;;;;;;;;5061661;28;20056;-67
2022/07/22 15:22:25;;;;;;;4.97;1.92;;;;;;;;;;5095638;28;20051;-70
2022/07/22 15:24:55;;;;;;;5.35;2.08;;;;;;;;;;5076449;28;20055;-68